F/V Berriz Patxiku — ECES — position and weather

sailwx.info

Track history (hours):
 
Tides and Currents Weather Stations Pressure Air Temp Water Temp Dewpoint Dewpoint Depression Visibility Wind Speed Wind Dir Waves Ship Positions

F/V Berriz Patxiku

Last reported at 2015-May-27 21:33 UTC. Time now 2015-May-28 03:59 UTC.
Position N 43°18' W 002°12'.

Length 30 m.

Type: Fishing. MMSI: 224106260.

Date/timePositionNaut miles runAvg speedWind from/ knotsBaromVisibWave heightAir tempDewpointWater temp
2015-May-27 21:33N 43°18' W 002°12'10 8.1
2015-May-27 20:20N 43°24' W 002°23'9 9.8
2015-May-27 19:28N 43°28' W 002°33'9 9.7
2015-May-27 18:33N 43°32' W 002°44'10 9.8
2015-May-27 17:33N 43°35' W 002°57'94 9.2
2015-May-27 07:15N 43°53' W 005°05'0 0.1
2015-May-27 06:29N 43°53' W 005°05'7 6.6
2015-May-27 05:28N 43°48' W 005°11'8 7.5
2015-May-27 04:25N 43°48' W 005°22'6 6.4
2015-May-27 03:32N 43°50' W 005°30'0 0.5
2015-May-27 02:33N 43°51' W 005°29'1 0.7
2015-May-27 01:33N 43°51' W 005°28'1 0.6
2015-May-27 00:29N 43°51' W 005°27'1 0.7
2015-May-26 23:33N 43°52' W 005°27'8 1.4
2015-May-26 17:20N 43°54' W 005°15'4 4.0
2015-May-26 16:25N 43°55' W 005°20'8 7.8
2015-May-26 15:21N 43°48' W 005°26'810.3
2015-May-26 14:33N 43°41' W 005°33'10 9.8
2015-May-26 13:33N 43°34' W 005°41'0 0.3
2015-May-26 12:33N 43°34' W 005°41'10 9.6
2015-May-26 11:33N 43°39' W 005°30'9 9.4
2015-May-26 10:33N 43°44' W 005°19'7 6.0
2015-May-26 09:25N 43°46' W 005°10'5 5.1
2015-May-26 08:32N 43°48' W 005°15'0 0.3
2015-May-26 07:30N 43°48' W 005°16'4 3.9
2015-May-26 06:23N 43°47' W 005°21'7 8.7
2015-May-26 05:33N 43°44' W 005°30'8 8.3
2015-May-26 04:33N 43°43' W 005°42'1 0.7
2015-May-26 03:34N 43°43' W 005°42'4 3.5
2015-May-26 02:33N 43°41' W 005°38'1 0.6
2015-May-26 01:33N 43°41' W 005°37'10 9.7
2015-May-26 00:33N 43°40' W 005°24'1010.0
2015-May-25 23:32N 43°38' W 005°10'  
2015-May-21 08:25N 43°59' W 005°00'3 3.6
2015-May-21 07:30N 43°58' W 005°05'4 2.7
2015-May-21 06:10N 43°55' W 005°01'4 2.5
2015-May-21 04:30N 43°52' W 004°58'7 5.2
2015-May-21 03:13N 43°46' W 004°54'124 3.8
2015-May-19 18:17N 43°20' W 002°07'3 0.6
2015-May-19 13:31N 43°22' W 002°04'0 0.5
2015-May-19 12:28N 43°22' W 002°05'4 3.9
2015-May-19 11:20N 43°19' W 002°10'2 0.4
2015-May-19 07:20N 43°18' W 002°12'  
Track history (hours):
 
Tides and Currents Weather Stations Pressure Air Temp Water Temp Dewpoint Dewpoint Depression Visibility Wind Speed Wind Dir Waves Ship Positions

F/V Berriz Patxiku

Last reported at 2015-May-27 21:33 UTC. Time now 2015-May-28 03:59 UTC.
Position N 43°18' W 002°12'.

Length 30 m.

Type: Fishing. MMSI: 224106260.

Date/timePositionNaut miles runAvg speedWind from/ knotsBaromVisibWave heightAir tempDewpointWater temp
2015-May-27 21:33N 43°18' W 002°12'10 8.1
2015-May-27 20:20N 43°24' W 002°23'9 9.8
2015-May-27 19:28N 43°28' W 002°33'9 9.7
2015-May-27 18:33N 43°32' W 002°44'10 9.8
2015-May-27 17:33N 43°35' W 002°57'94 9.2
2015-May-27 07:15N 43°53' W 005°05'0 0.1
2015-May-27 06:29N 43°53' W 005°05'7 6.6
2015-May-27 05:28N 43°48' W 005°11'8 7.5
2015-May-27 04:25N 43°48' W 005°22'6 6.4
2015-May-27 03:32N 43°50' W 005°30'0 0.5
2015-May-27 02:33N 43°51' W 005°29'1 0.7
2015-May-27 01:33N 43°51' W 005°28'1 0.6
2015-May-27 00:29N 43°51' W 005°27'1 0.7
2015-May-26 23:33N 43°52' W 005°27'8 1.4
2015-May-26 17:20N 43°54' W 005°15'4 4.0
2015-May-26 16:25N 43°55' W 005°20'8 7.8
2015-May-26 15:21N 43°48' W 005°26'810.3
2015-May-26 14:33N 43°41' W 005°33'10 9.8
2015-May-26 13:33N 43°34' W 005°41'0 0.3
2015-May-26 12:33N 43°34' W 005°41'10 9.6
2015-May-26 11:33N 43°39' W 005°30'9 9.4
2015-May-26 10:33N 43°44' W 005°19'7 6.0
2015-May-26 09:25N 43°46' W 005°10'5 5.1
2015-May-26 08:32N 43°48' W 005°15'0 0.3
2015-May-26 07:30N 43°48' W 005°16'4 3.9
2015-May-26 06:23N 43°47' W 005°21'7 8.7
2015-May-26 05:33N 43°44' W 005°30'8 8.3
2015-May-26 04:33N 43°43' W 005°42'1 0.7
2015-May-26 03:34N 43°43' W 005°42'4 3.5
2015-May-26 02:33N 43°41' W 005°38'1 0.6
2015-May-26 01:33N 43°41' W 005°37'10 9.7
2015-May-26 00:33N 43°40' W 005°24'1010.0
2015-May-25 23:32N 43°38' W 005°10'  
2015-May-21 08:25N 43°59' W 005°00'3 3.6
2015-May-21 07:30N 43°58' W 005°05'4 2.7
2015-May-21 06:10N 43°55' W 005°01'4 2.5
2015-May-21 04:30N 43°52' W 004°58'7 5.2
2015-May-21 03:13N 43°46' W 004°54'124 3.8
2015-May-19 18:17N 43°20' W 002°07'3 0.6
2015-May-19 13:31N 43°22' W 002°04'0 0.5
2015-May-19 12:28N 43°22' W 002°05'4 3.9
2015-May-19 11:20N 43°19' W 002°10'2 0.4
2015-May-19 07:20N 43°18' W 002°12'  

Dump ship's entire track history